.
WxDataArchive / Data Records for 2009-05-28
2009-05-27 May 2009 2009-05-29

Data Records for Thursday, 28 May 2009

Time	Temp	Chill	HIndex	Humid	Dewpt	 Wind 	HiWind	WindDir	Rain 	Barom 
-----	----	-----	------	-----	-----	------	------	-------	-----	----- 
00:00	67.9	67.9	67.9	92	65.5	0	1	315	0.00	29.662 
00:05	67.9	67.9	67.9	91	65.2	0	1	315	0.00	29.662 
00:10	67.9	67.9	67.9	91	65.2	0	0	---	0.00	29.662 
00:15	67.9	67.9	67.9	92	65.5	0	1	315	0.00	29.671 
00:20	68.3	68.3	68.3	92	65.9	0	1	315	0.00	29.671 
00:25	68.6	68.6	68.6	91	65.9	0	2	315	0.00	29.671 
00:30	68.9	68.9	68.9	90	65.8	0	1	270	0.00	29.671 
00:35	69.1	69.1	69.1	89	65.7	0	1	270	0.00	29.671 
00:40	69.3	69.3	69.3	89	65.9	0	1	270	0.00	29.671 
00:45	69.4	69.4	69.4	89	66.0	0	1	270	0.00	29.674 
00:50	69.4	69.4	69.4	88	65.7	0	1	270	0.00	29.674 
00:55	69.4	69.4	69.4	88	65.7	0	1	270	0.00	29.674 
01:00	69.4	69.4	69.4	88	65.7	0	1	270	0.00	29.673 
01:05	69.4	69.4	69.4	88	65.7	0	1	270	0.00	29.673 
01:10	69.4	69.4	69.4	89	66.0	0	1	270	0.00	29.673 
01:15	69.4	69.4	69.4	89	66.0	0	1	270	0.00	29.673 
01:20	69.4	69.4	69.4	89	66.0	0	1	270	0.00	29.673 
01:25	69.4	69.4	69.4	89	66.0	0	1	270	0.00	29.673 
01:30	69.4	69.4	69.4	89	66.0	0	1	270	0.00	29.676 
01:35	69.6	69.6	69.6	89	66.2	0	1	270	0.00	29.676 
01:40	69.6	69.6	69.6	89	66.2	0	1	270	0.00	29.676 
01:45	69.8	69.8	69.8	89	66.4	0	1	270	0.00	29.675 
01:50	69.6	69.6	69.6	89	66.2	0	1	270	0.00	29.675 
01:55	69.6	69.6	69.6	88	65.9	0	1	270	0.00	29.675 
02:00	69.4	69.4	69.4	88	65.7	0	1	270	0.00	29.676 
02:05	69.3	69.3	69.3	88	65.6	0	1	270	0.00	29.676 
02:10	69.1	69.1	69.1	88	65.4	0	1	270	0.00	29.676 
02:15	68.8	68.8	68.8	88	65.1	0	1	270	0.00	29.668 
02:20	68.8	68.8	68.8	88	65.1	0	1	270	0.00	29.668 
02:25	68.6	68.6	68.6	88	64.9	0	0	---	0.00	29.668 
02:30	68.4	68.4	68.4	88	64.7	0	0	---	0.00	29.665 
02:35	68.4	68.4	68.4	88	64.7	0	0	---	0.00	29.665 
02:40	68.3	68.3	68.3	88	64.6	0	1	270	0.00	29.665 
02:45	68.1	68.1	68.1	88	64.4	0	1	270	0.00	29.667 
02:50	67.9	67.9	67.9	88	64.2	0	1	270	0.00	29.667 
02:55	67.9	67.9	67.9	88	64.2	0	1	270	0.00	29.667 
03:00	67.9	67.9	67.9	88	64.2	0	1	270	0.00	29.669 
03:05	67.8	67.8	67.8	88	64.1	0	1	270	0.00	29.669 
03:10	67.9	67.9	67.9	88	64.2	0	1	270	0.00	29.669 
03:15	67.8	67.8	67.8	88	64.1	0	1	270	0.00	29.663 
03:20	67.8	67.8	67.8	88	64.1	0	1	270	0.00	29.663 
03:25	67.8	67.8	67.8	88	64.1	0	0	---	0.00	29.663 
03:30	67.6	67.6	67.6	88	63.9	0	1	270	0.00	29.660 
03:35	67.6	67.6	67.6	88	63.9	0	1	270	0.00	29.660 
03:40	67.4	67.4	67.4	88	63.7	0	1	270	0.00	29.660 
03:45	67.4	67.4	67.4	88	63.7	0	1	270	0.00	29.661 
03:50	67.3	67.3	67.3	88	63.6	0	1	270	0.00	29.661 
03:55	67.3	67.3	67.3	88	63.6	0	1	270	0.00	29.661 
04:00	67.1	67.1	67.1	88	63.4	0	1	270	0.00	29.659 
04:05	67.1	67.1	67.1	88	63.4	0	0	---	0.00	29.659 
04:10	66.9	66.9	66.9	88	63.2	0	0	---	0.00	29.659 
04:15	66.9	66.9	66.9	88	63.2	0	1	270	0.00	29.657 
04:20	66.8	66.8	66.8	88	63.1	0	1	270	0.00	29.657 
04:25	66.8	66.8	66.8	88	63.1	0	0	---	0.00	29.657 
04:30	66.8	66.8	66.8	88	63.1	0	0	---	0.00	29.650 
04:35	66.8	66.8	66.8	88	63.1	0	0	---	0.00	29.650 
04:40	66.8	66.8	66.8	88	63.1	0	0	---	0.00	29.650 
04:45	66.6	66.6	66.6	89	63.3	0	0	---	0.00	29.648 
04:50	66.6	66.6	66.6	89	63.3	0	0	---	0.00	29.648 
04:55	66.4	66.4	66.4	89	63.1	0	0	---	0.00	29.648 
05:00	66.4	66.4	66.4	89	63.1	0	0	---	0.00	29.650 
05:05	66.4	66.4	66.4	90	63.4	0	0	---	0.00	29.650 
05:10	66.4	66.4	66.4	90	63.4	0	1	270	0.00	29.650 
05:15	66.3	66.3	66.3	90	63.3	0	1	270	0.00	29.657 
05:20	66.1	66.1	66.1	89	62.8	0	1	315	0.00	29.657 
05:25	66.0	66.0	66.0	88	62.3	0	0	---	0.00	29.657 
05:30	66.0	66.0	66.0	88	62.3	0	1	315	0.00	29.652 
05:35	66.0	66.0	66.0	87	62.0	0	1	315	0.00	29.652 
05:40	66.0	66.0	66.0	87	62.0	0	1	315	0.00	29.652 
05:45	66.0	66.0	66.0	87	62.0	0	1	315	0.00	29.650 
05:50	66.0	66.0	66.0	88	62.3	0	0	---	0.00	29.650 
05:55	66.0	66.0	66.0	88	62.3	0	0	---	0.00	29.650 
06:00	65.8	65.8	65.8	88	62.1	0	1	315	0.00	29.656 
06:05	65.6	65.6	65.6	88	61.9	0	1	315	0.00	29.656 
06:10	65.6	65.6	65.6	88	61.9	0	1	315	0.00	29.656 
06:15	65.5	65.5	65.5	88	61.8	0	1	315	0.00	29.663 
06:20	65.5	65.5	65.5	88	61.8	0	1	315	0.00	29.663 
06:25	65.3	65.3	65.3	88	61.6	0	1	315	0.00	29.663 
06:30	65.3	65.3	65.3	89	62.0	0	1	315	0.00	29.669 
06:35	65.3	65.3	65.3	89	62.0	0	0	---	0.00	29.669 
06:40	65.2	65.2	65.2	89	61.9	0	1	315	0.00	29.669 
06:45	65.0	65.0	65.0	89	61.7	0	2	315	0.00	29.668 
06:50	65.0	65.0	65.0	90	62.0	0	1	315	0.00	29.668 
06:55	64.8	64.8	64.8	90	61.8	0	1	315	0.00	29.668 
07:00	64.8	64.8	64.8	90	61.8	0	1	315	0.00	29.679 
07:05	64.7	64.7	64.7	90	61.7	0	0	---	0.00	29.679 
07:10	64.7	64.7	64.7	90	61.7	0	1	315	0.00	29.679 
07:15	64.7	64.7	64.7	90	61.7	0	1	315	0.00	29.690 
07:20	64.7	64.7	64.7	90	61.7	0	1	315	0.00	29.690 
07:25	64.7	64.7	64.7	90	61.7	0	1	315	0.00	29.690 
07:30	64.8	64.8	64.8	90	61.8	0	0	---	0.00	29.699 
07:35	64.8	64.8	64.8	90	61.8	0	0	---	0.00	29.699 
07:40	64.8	64.8	64.8	91	62.1	0	0	---	0.00	29.699 
07:45	65.0	65.0	65.0	91	62.3	0	0	---	0.00	29.704 
07:50	65.0	65.0	65.0	91	62.3	0	0	---	0.01	29.704 
07:55	64.8	64.8	64.8	91	62.1	0	1	315	0.00	29.704 
08:00	64.8	64.8	64.8	91	62.1	0	1	315	0.00	29.705 
08:05	64.8	64.8	64.8	92	62.4	0	0	---	0.00	29.705 
08:10	64.8	64.8	64.8	92	62.4	0	0	---	0.01	29.705 
08:15	64.8	64.8	64.8	92	62.4	0	0	---	0.00	29.707 
08:20	64.8	64.8	64.8	92	62.4	0	0	---	0.00	29.707 
08:25	64.8	64.8	64.8	92	62.4	0	0	---	0.00	29.707 
08:30	64.8	64.8	64.8	92	62.4	0	1	315	0.00	29.707 
08:35	64.5	64.5	64.5	92	62.1	0	1	315	0.01	29.707 
08:40	64.3	64.3	64.3	92	61.9	0	1	315	0.00	29.707 
08:45	64.3	64.3	64.3	92	61.9	0	1	315	0.00	29.715 
08:50	64.3	64.3	64.3	92	61.9	0	1	315	0.00	29.715 
08:55	64.2	64.2	64.2	93	62.1	0	1	315	0.00	29.715 
09:00	64.2	64.2	64.2	93	62.1	0	1	315	0.00	29.715 
09:05	64.2	64.2	64.2	93	62.1	0	1	315	0.00	29.715 
09:10	64.0	64.0	64.0	93	61.9	0	1	315	0.00	29.715 
09:15	64.2	64.2	64.2	93	62.1	0	0	---	0.00	29.715 
09:20	64.2	64.2	64.2	93	62.1	0	1	315	0.00	29.715 
09:25	64.3	64.3	64.3	93	62.2	0	0	---	0.00	29.715 
09:30	64.3	64.3	64.3	93	62.2	0	0	---	0.00	29.714 
09:35	64.5	64.5	64.5	93	62.4	0	1	315	0.00	29.714 
09:40	64.5	64.5	64.5	93	62.4	0	1	315	0.00	29.714 
09:45	64.3	64.3	64.3	92	61.9	0	1	315	0.00	29.712 
09:50	64.3	64.3	64.3	92	61.9	0	1	315	0.00	29.712 
09:55	64.5	64.5	64.5	92	62.1	0	1	315	0.00	29.712 
10:00	65.0	65.0	65.0	92	62.6	0	1	315	0.00	29.713 
10:05	65.0	65.0	65.0	92	62.6	0	1	315	0.00	29.713 
10:10	65.0	65.0	65.0	92	62.6	0	1	315	0.00	29.713 
10:15	65.0	65.0	65.0	91	62.3	0	1	315	0.00	29.718 
10:20	65.0	65.0	65.0	90	62.0	0	1	315	0.00	29.718 
10:25	65.2	65.2	65.2	90	62.2	0	2	315	0.00	29.718 
10:30	65.3	65.3	65.3	89	62.0	0	1	315	0.00	29.719 
10:35	65.3	65.3	65.3	89	62.0	0	1	315	0.00	29.719 
10:40	65.2	65.2	65.2	88	61.6	0	2	270	0.00	29.719 
10:45	65.0	65.0	65.0	88	61.4	0	3	248	0.00	29.715 
10:50	65.2	65.2	65.2	88	61.6	0	1	248	0.00	29.715 
10:55	65.0	65.0	65.0	88	61.4	0	2	248	0.00	29.715 
11:00	64.7	64.7	64.7	88	61.1	0	1	248	0.01	29.712 
11:05	64.7	64.7	64.7	89	61.4	0	2	248	0.01	29.712 
11:10	64.5	64.5	64.5	90	61.5	0	1	248	0.00	29.712 
11:15	64.3	64.3	64.3	90	61.3	0	2	248	0.00	29.717 
11:20	64.2	64.2	64.2	91	61.5	0	1	248	0.00	29.717 
11:25	64.2	64.2	64.2	91	61.5	0	1	248	0.00	29.717 
11:30	64.2	64.2	64.2	91	61.5	0	1	248	0.00	29.711 
11:35	64.3	64.3	64.3	92	61.9	0	2	248	0.00	29.711 
11:40	64.3	64.3	64.3	92	61.9	0	3	248	0.00	29.711 
11:45	64.3	64.3	64.3	92	61.9	0	2	248	0.00	29.712 
11:50	64.3	64.3	64.3	92	61.9	0	2	248	0.00	29.712 
11:55	64.5	64.5	64.5	92	62.1	0	2	248	0.00	29.712 
12:00	64.5	64.5	64.5	91	61.8	0	1	248	0.00	29.711 
12:05	64.7	64.7	64.7	91	62.0	0	2	248	0.00	29.711 
12:10	64.7	64.7	64.7	91	62.0	0	3	248	0.00	29.711 
12:15	64.8	64.8	64.8	91	62.1	0	2	248	0.00	29.708 
12:20	65.0	65.0	65.0	91	62.3	0	1	248	0.00	29.708 
12:25	65.0	65.0	65.0	90	62.0	0	1	248	0.00	29.708 
12:30	64.8	64.8	64.8	89	61.5	1	3	248	0.00	29.708 
12:35	64.7	64.7	64.7	89	61.4	0	3	248	0.00	29.708 
12:40	64.7	64.7	64.7	89	61.4	0	2	248	0.00	29.708 
12:45	64.7	64.7	64.7	89	61.4	1	2	248	0.00	29.707 
12:50	64.5	64.5	64.5	88	60.9	1	3	248	0.00	29.707 
12:55	64.5	64.5	64.5	88	60.9	0	2	248	0.00	29.707 
13:00	64.3	64.3	64.3	88	60.7	1	5	248	0.00	29.715 
13:05	64.0	64.0	64.0	88	60.4	2	3	270	0.00	29.715 
13:10	63.9	63.9	63.9	88	60.3	1	4	248	0.00	29.715 
13:15	63.9	63.9	63.9	88	60.3	1	3	248	0.00	29.721 
13:20	63.7	63.7	63.7	88	60.1	2	4	270	0.00	29.721 
13:25	63.4	63.4	63.4	88	59.8	2	4	270	0.00	29.721 
13:30	63.2	63.2	63.2	89	59.9	2	3	270	0.00	29.720 
13:35	62.9	62.9	62.9	90	59.9	2	4	292	0.00	29.720 
13:40	63.2	63.2	63.2	91	60.5	2	5	292	0.00	29.720 
13:45	63.5	63.5	63.5	90	60.5	2	6	248	0.00	29.714 
13:50	64.0	64.0	64.0	89	60.7	1	5	248	0.00	29.714 
13:55	64.5	64.5	64.5	88	60.9	2	5	315	0.00	29.714 
14:00	65.3	65.3	65.3	86	61.0	2	5	270	0.00	29.709 
14:05	65.2	65.2	65.2	83	59.9	2	4	270	0.00	29.709 
14:10	64.8	64.8	64.8	83	59.5	2	5	292	0.00	29.709 
14:15	65.3	65.3	65.3	83	60.0	2	5	248	0.00	29.709 
14:20	65.6	65.6	65.6	81	59.6	2	4	248	0.00	29.709 
14:25	65.3	65.3	65.3	80	59.0	2	5	248	0.00	29.709 
14:30	64.8	64.8	64.8	80	58.5	3	9	270	0.00	29.708 
14:35	65.0	65.0	65.0	81	59.0	1	3	248	0.00	29.708 
14:40	65.2	65.2	65.2	80	58.9	2	4	248	0.00	29.708 
14:45	65.6	65.6	65.6	77	58.2	3	5	270	0.00	29.707 
14:50	65.6	65.6	65.6	74	57.1	3	5	292	0.00	29.707 
14:55	65.0	65.0	65.0	76	57.2	3	5	248	0.00	29.707 
15:00	64.5	64.5	64.5	77	57.1	2	4	270	0.00	29.708 
15:05	64.7	64.7	64.7	77	57.3	2	5	270	0.00	29.708 
15:10	64.5	64.5	64.5	77	57.1	2	5	315	0.00	29.708 
15:15	63.9	63.9	63.9	80	57.6	2	5	270	0.00	29.711 
15:20	63.5	63.5	63.5	80	57.2	2	5	292	0.00	29.711 
15:25	63.2	63.2	63.2	80	56.9	2	4	315	0.00	29.711 
15:30	63.2	63.2	63.2	80	56.9	2	5	315	0.00	29.709 
15:35	63.2	63.2	63.2	80	56.9	1	3	315	0.00	29.709 
15:40	63.1	63.1	63.1	81	57.2	1	3	292	0.00	29.709 
15:45	62.7	62.7	62.7	80	56.4	2	5	292	0.00	29.712 
15:50	62.7	62.7	62.7	81	56.8	2	4	338	0.00	29.712 
15:55	62.7	62.7	62.7	80	56.4	2	5	270	0.00	29.712 
16:00	62.3	62.3	62.3	81	56.4	2	5	315	0.00	29.720 
16:05	61.3	61.3	61.3	83	56.1	1	4	292	0.00	29.720 
16:10	60.9	60.9	60.9	84	56.0	2	4	292	0.00	29.720 
16:15	60.5	60.5	60.5	84	55.6	1	3	315	0.00	29.728 
16:20	60.4	60.4	60.4	85	55.9	1	4	270	0.00	29.728 
16:25	60.5	60.5	60.5	85	56.0	1	4	292	0.00	29.728 
16:30	60.9	60.9	60.9	84	56.0	1	3	270	0.00	29.727 
16:35	61.3	61.3	61.3	84	56.4	1	3	270	0.00	29.727 
16:40	61.3	61.3	61.3	84	56.4	1	3	315	0.00	29.727 
16:45	61.0	61.0	61.0	83	55.8	1	3	315	0.00	29.729 
16:50	61.2	61.2	61.2	83	56.0	0	2	315	0.00	29.729 
16:55	61.0	61.0	61.0	83	55.8	0	1	315	0.00	29.729 
17:00	60.7	60.7	60.7	82	55.2	1	4	270	0.00	29.730 
17:05	60.5	60.5	60.5	83	55.3	1	3	315	0.00	29.730 
17:10	60.4	60.4	60.4	82	54.9	2	4	292	0.00	29.730 
17:15	60.4	60.4	60.4	82	54.9	1	4	270	0.00	29.732 
17:20	60.5	60.5	60.5	82	55.0	1	3	292	0.00	29.732 
17:25	60.7	60.7	60.7	82	55.2	1	3	292	0.00	29.732 
17:30	60.9	60.9	60.9	80	54.7	1	4	292	0.00	29.730 
17:35	60.7	60.7	60.7	80	54.5	2	5	315	0.00	29.730 
17:40	61.0	61.0	61.0	80	54.8	1	4	315	0.00	29.730 
17:45	61.2	61.2	61.2	79	54.6	1	3	270	0.00	29.729 
17:50	61.2	61.2	61.2	77	53.9	2	4	315	0.00	29.729 
17:55	61.3	61.3	61.3	77	54.0	2	5	292	0.00	29.729 
18:00	61.5	61.5	61.5	76	53.9	2	7	315	0.00	29.729 
18:05	61.3	61.3	61.3	75	53.3	3	5	292	0.00	29.729 
18:10	61.5	61.5	61.5	76	53.9	2	5	315	0.00	29.729 
18:15	61.5	61.5	61.5	76	53.9	2	4	270	0.00	29.730 
18:20	61.5	61.5	61.5	77	54.2	1	4	270	0.00	29.730 
18:25	61.5	61.5	61.5	76	53.9	1	2	338	0.00	29.730 
18:30	61.5	61.5	61.5	76	53.9	1	3	338	0.00	29.731 
18:35	61.6	61.6	61.6	76	54.0	0	2	338	0.00	29.731 
18:40	61.3	61.3	61.3	74	52.9	2	4	338	0.00	29.731 
18:45	61.0	61.0	61.0	74	52.6	2	3	315	0.00	29.732 
18:50	60.9	60.9	60.9	73	52.2	2	5	315	0.00	29.732 
18:55	60.9	60.9	60.9	73	52.2	3	5	315	0.00	29.732 
19:00	60.7	60.7	60.7	74	52.4	1	4	315	0.00	29.730 
19:05	60.5	60.5	60.5	74	52.2	2	5	270	0.00	29.730 
19:10	60.5	60.5	60.5	75	52.5	1	4	248	0.00	29.730 
19:15	60.5	60.5	60.5	75	52.5	1	4	292	0.00	29.731 
19:20	60.4	60.4	60.4	75	52.4	1	5	270	0.00	29.731 
19:25	60.4	60.4	60.4	75	52.4	1	4	270	0.00	29.731 
19:30	60.2	60.2	60.2	75	52.2	1	4	315	0.00	29.744 
19:35	60.1	60.1	60.1	75	52.1	2	5	315	0.00	29.744 
19:40	60.1	60.1	60.1	75	52.1	2	6	270	0.00	29.744 
19:45	59.9	59.9	59.9	76	52.3	1	5	315	0.00	29.749 
19:50	59.9	59.9	59.9	76	52.3	2	5	270	0.00	29.749 
19:55	59.6	59.6	59.6	76	52.0	2	5	315	0.00	29.749 
20:00	59.5	59.5	59.5	77	52.3	1	6	315	0.00	29.755 
20:05	59.3	59.3	59.3	77	52.1	2	4	292	0.00	29.755 
20:10	59.2	59.2	59.2	77	52.0	2	5	292	0.00	29.755 
20:15	58.9	58.9	58.9	78	52.0	1	3	270	0.00	29.764 
20:20	58.9	58.9	58.9	79	52.4	0	3	270	0.00	29.764 
20:25	58.9	58.9	58.9	78	52.0	1	5	270	0.00	29.764 
20:30	58.7	58.7	58.7	78	51.9	1	3	315	0.00	29.766 
20:35	58.6	58.6	58.6	78	51.8	1	4	270	0.00	29.766 
20:40	58.4	58.4	58.4	78	51.6	3	6	270	0.00	29.766 
20:45	58.4	58.4	58.4	78	51.6	1	3	315	0.00	29.779 
20:50	58.3	58.3	58.3	77	51.1	2	4	292	0.00	29.779 
20:55	58.1	58.1	58.1	77	50.9	2	4	315	0.00	29.779 
21:00	58.1	58.1	58.1	77	50.9	2	5	270	0.00	29.782 
21:05	58.1	58.1	58.1	77	50.9	1	4	292	0.00	29.782 
21:10	58.0	58.0	58.0	78	51.2	2	5	292	0.00	29.782 
21:15	57.8	57.8	57.8	78	51.0	1	4	292	0.00	29.780 
21:20	57.8	57.8	57.8	78	51.0	1	3	315	0.00	29.780 
21:25	57.6	57.6	57.6	79	51.1	2	5	315	0.00	29.780 
21:30	57.6	57.6	57.6	79	51.1	1	3	315	0.00	29.782 
21:35	57.5	57.5	57.5	79	51.0	1	3	338	0.00	29.782 
21:40	57.5	57.5	57.5	79	51.0	2	4	270	0.00	29.782 
21:45	57.5	57.5	57.5	80	51.4	1	3	315	0.00	29.782 
21:50	57.5	57.5	57.5	80	51.4	1	3	315	0.00	29.782 
21:55	57.5	57.5	57.5	80	51.4	1	3	315	0.00	29.782 
22:00	57.3	57.3	57.3	80	51.2	1	4	315	0.00	29.785 
22:05	57.3	57.3	57.3	79	50.8	1	3	292	0.00	29.785 
22:10	57.2	57.2	57.2	79	50.7	2	4	315	0.00	29.785 
22:15	57.0	57.0	57.0	80	50.9	2	4	315	0.00	29.785 
22:20	57.0	57.0	57.0	80	50.9	1	3	315	0.00	29.785 
22:25	56.9	56.9	56.9	80	50.8	1	4	292	0.00	29.785 
22:30	56.9	56.9	56.9	79	50.5	1	5	292	0.00	29.789 
22:35	56.7	56.7	56.7	79	50.3	1	4	315	0.00	29.789 
22:40	56.6	56.6	56.6	78	49.8	2	5	292	0.00	29.789 
22:45	56.5	56.5	56.5	78	49.7	1	3	292	0.00	29.784 
22:50	56.5	56.5	56.5	79	50.1	2	6	292	0.00	29.784 
22:55	56.3	56.3	56.3	79	49.9	0	2	292	0.00	29.784 
23:00	56.2	56.2	56.2	78	49.4	1	3	315	0.00	29.792 
23:05	56.2	56.2	56.2	78	49.4	2	6	315	0.00	29.792 
23:10	56.0	56.0	56.0	78	49.2	2	5	315	0.00	29.792 
23:15	56.0	56.0	56.0	78	49.2	1	4	248	0.00	29.801 
23:20	56.0	56.0	56.0	79	49.6	0	3	315	0.00	29.801 
23:25	56.0	56.0	56.0	79	49.6	0	2	315	0.00	29.801 
23:30	56.0	56.0	56.0	79	49.6	0	1	315	0.00	29.801 
23:35	56.0	56.0	56.0	79	49.6	1	4	315	0.00	29.801 
23:40	56.0	56.0	56.0	79	49.6	1	3	315	0.00	29.801 
23:45	56.0	56.0	56.0	79	49.6	0	2	315	0.00	29.805 
23:50	56.0	56.0	56.0	79	49.6	0	3	315	0.00	29.805 
23:55	56.0	56.0	56.0	79	49.6	1	2	315	0.00	29.805 

CoCoRaHS
IN-AL-39
A2 Web Hosting
Creative Commons License
GoDaddy
search engine by freefind advanced

loaded 2018-11-14 04:46:02 • last modified 2010-11-18 10:43:29
Privacy PolicyDisclaimer
• wx.awcolley.com is powered by PmWiki v.2002016 •
• all content (unless otherwise noted) © 2018 A W Colley